sensor_id;sensor_type;location;lat;lon;timestamp;P1;durP1;ratioP1;P2;durP2;ratioP2
36849;SDS011;22783;51.034;3.726;2022-07-23T00:00:17;8.35;;;6.88;;
36849;SDS011;22783;51.034;3.726;2022-07-23T00:02:43;12.30;;;6.68;;
36849;SDS011;22783;51.034;3.726;2022-07-23T00:05:09;9.43;;;6.88;;
36849;SDS011;22783;51.034;3.726;2022-07-23T00:07:35;9.15;;;6.28;;
36849;SDS011;22783;51.034;3.726;2022-07-23T00:10:02;13.45;;;7.25;;
36849;SDS011;22783;51.034;3.726;2022-07-23T00:12:28;9.50;;;6.90;;
36849;SDS011;22783;51.034;3.726;2022-07-23T00:14:54;11.38;;;6.80;;
36849;SDS011;22783;51.034;3.726;2022-07-23T00:17:19;6.95;;;5.75;;
36849;SDS011;22783;51.034;3.726;2022-07-23T00:19:45;12.57;;;7.25;;
36849;SDS011;22783;51.034;3.726;2022-07-23T00:22:11;10.52;;;7.82;;
36849;SDS011;22783;51.034;3.726;2022-07-23T00:24:36;7.38;;;6.30;;
36849;SDS011;22783;51.034;3.726;2022-07-23T00:27:02;12.63;;;7.22;;
36849;SDS011;22783;51.034;3.726;2022-07-23T00:29:28;11.13;;;6.47;;
36849;SDS011;22783;51.034;3.726;2022-07-23T00:31:54;11.95;;;7.85;;
36849;SDS011;22783;51.034;3.726;2022-07-23T00:34:20;7.43;;;6.65;;
36849;SDS011;22783;51.034;3.726;2022-07-23T00:36:45;14.30;;;8.48;;
36849;SDS011;22783;51.034;3.726;2022-07-23T00:39:11;10.10;;;7.35;;
36849;SDS011;22783;51.034;3.726;2022-07-23T00:41:37;9.43;;;6.82;;
36849;SDS011;22783;51.034;3.726;2022-07-23T00:46:50;11.45;;;7.70;;
36849;SDS011;22783;51.034;3.726;2022-07-23T00:49:26;16.08;;;8.32;;
36849;SDS011;22783;51.034;3.726;2022-07-23T00:51:54;12.05;;;7.75;;
36849;SDS011;22783;51.034;3.726;2022-07-23T00:54:24;13.18;;;7.70;;
36849;SDS011;22783;51.034;3.726;2022-07-23T00:56:51;13.43;;;8.23;;
36849;SDS011;22783;51.034;3.726;2022-07-23T00:59:17;12.07;;;8.70;;
36849;SDS011;22783;51.034;3.726;2022-07-23T01:01:42;12.25;;;8.75;;
36849;SDS011;22783;51.034;3.726;2022-07-23T01:04:09;13.20;;;7.75;;
36849;SDS011;22783;51.034;3.726;2022-07-23T01:06:37;12.35;;;8.32;;
36849;SDS011;22783;51.034;3.726;2022-07-23T01:09:04;10.23;;;7.97;;
36849;SDS011;22783;51.034;3.726;2022-07-23T01:11:33;10.45;;;8.70;;
36849;SDS011;22783;51.034;3.726;2022-07-23T01:14:07;11.30;;;8.07;;
36849;SDS011;22783;51.034;3.726;2022-07-23T01:16:33;13.27;;;7.32;;
36849;SDS011;22783;51.034;3.726;2022-07-23T01:18:59;11.45;;;7.80;;
36849;SDS011;22783;51.034;3.726;2022-07-23T01:21:24;16.23;;;9.40;;
36849;SDS011;22783;51.034;3.726;2022-07-23T01:23:50;14.93;;;8.98;;
36849;SDS011;22783;51.034;3.726;2022-07-23T01:26:16;11.82;;;8.45;;
36849;SDS011;22783;51.034;3.726;2022-07-23T01:28:42;11.65;;;8.13;;
36849;SDS011;22783;51.034;3.726;2022-07-23T01:31:08;13.98;;;8.15;;
36849;SDS011;22783;51.034;3.726;2022-07-23T01:33:34;11.93;;;9.13;;
36849;SDS011;22783;51.034;3.726;2022-07-23T01:36:00;17.15;;;9.10;;
36849;SDS011;22783;51.034;3.726;2022-07-23T01:38:25;12.43;;;8.32;;
36849;SDS011;22783;51.034;3.726;2022-07-23T01:40:51;11.10;;;9.13;;
36849;SDS011;22783;51.034;3.726;2022-07-23T01:43:16;13.98;;;9.60;;
36849;SDS011;22783;51.034;3.726;2022-07-23T01:45:42;12.65;;;9.25;;
36849;SDS011;22783;51.034;3.726;2022-07-23T01:48:09;14.57;;;8.23;;
36849;SDS011;22783;51.034;3.726;2022-07-23T01:50:35;13.68;;;8.02;;
36849;SDS011;22783;51.034;3.726;2022-07-23T01:53:00;14.00;;;9.55;;
36849;SDS011;22783;51.034;3.726;2022-07-23T01:55:26;15.75;;;8.18;;
36849;SDS011;22783;51.034;3.726;2022-07-23T01:57:52;13.57;;;8.82;;
36849;SDS011;22783;51.034;3.726;2022-07-23T02:00:18;15.30;;;8.82;;
36849;SDS011;22783;51.034;3.726;2022-07-23T02:02:43;12.98;;;9.52;;
36849;SDS011;22783;51.034;3.726;2022-07-23T02:05:09;14.45;;;8.77;;
36849;SDS011;22783;51.034;3.726;2022-07-23T02:07:35;17.20;;;9.57;;
36849;SDS011;22783;51.034;3.726;2022-07-23T02:10:00;13.82;;;9.15;;
36849;SDS011;22783;51.034;3.726;2022-07-23T02:12:26;14.35;;;8.75;;
36849;SDS011;22783;51.034;3.726;2022-07-23T02:14:52;11.60;;;8.07;;
36849;SDS011;22783;51.034;3.726;2022-07-23T02:17:17;14.45;;;9.00;;
36849;SDS011;22783;51.034;3.726;2022-07-23T02:19:43;11.18;;;8.00;;
36849;SDS011;22783;51.034;3.726;2022-07-23T02:22:09;13.60;;;9.15;;
36849;SDS011;22783;51.034;3.726;2022-07-23T02:24:34;13.50;;;9.27;;
36849;SDS011;22783;51.034;3.726;2022-07-23T02:27:00;12.02;;;8.45;;
36849;SDS011;22783;51.034;3.726;2022-07-23T02:29:26;16.73;;;10.38;;
36849;SDS011;22783;51.034;3.726;2022-07-23T02:31:51;12.98;;;9.32;;
36849;SDS011;22783;51.034;3.726;2022-07-23T02:34:17;10.35;;;9.00;;
36849;SDS011;22783;51.034;3.726;2022-07-23T02:36:43;11.02;;;8.85;;
36849;SDS011;22783;51.034;3.726;2022-07-23T02:39:09;10.48;;;8.45;;
36849;SDS011;22783;51.034;3.726;2022-07-23T02:41:35;16.65;;;8.88;;
36849;SDS011;22783;51.034;3.726;2022-07-23T02:44:01;13.38;;;9.15;;
36849;SDS011;22783;51.034;3.726;2022-07-23T02:46:26;13.68;;;9.00;;
36849;SDS011;22783;51.034;3.726;2022-07-23T02:48:53;14.95;;;9.73;;
36849;SDS011;22783;51.034;3.726;2022-07-23T02:51:18;17.55;;;9.50;;
36849;SDS011;22783;51.034;3.726;2022-07-23T02:53:44;12.55;;;8.95;;
36849;SDS011;22783;51.034;3.726;2022-07-23T02:56:12;14.25;;;8.82;;
36849;SDS011;22783;51.034;3.726;2022-07-23T02:58:38;11.77;;;8.68;;
36849;SDS011;22783;51.034;3.726;2022-07-23T03:01:03;16.35;;;10.77;;
36849;SDS011;22783;51.034;3.726;2022-07-23T03:03:30;12.38;;;9.82;;
36849;SDS011;22783;51.034;3.726;2022-07-23T03:05:56;11.07;;;9.40;;
36849;SDS011;22783;51.034;3.726;2022-07-23T03:08:22;13.70;;;8.57;;
36849;SDS011;22783;51.034;3.726;2022-07-23T03:10:47;14.40;;;8.90;;
36849;SDS011;22783;51.034;3.726;2022-07-23T03:13:13;10.90;;;8.70;;
36849;SDS011;22783;51.034;3.726;2022-07-23T03:15:39;10.60;;;8.63;;
36849;SDS011;22783;51.034;3.726;2022-07-23T03:18:04;13.23;;;9.48;;
36849;SDS011;22783;51.034;3.726;2022-07-23T03:20:30;14.23;;;10.10;;
36849;SDS011;22783;51.034;3.726;2022-07-23T03:22:56;12.57;;;10.25;;
36849;SDS011;22783;51.034;3.726;2022-07-23T03:25:21;16.13;;;10.55;;
36849;SDS011;22783;51.034;3.726;2022-07-23T03:27:47;14.52;;;10.38;;
36849;SDS011;22783;51.034;3.726;2022-07-23T03:30:13;14.18;;;9.93;;
36849;SDS011;22783;51.034;3.726;2022-07-23T03:32:39;16.27;;;10.15;;
36849;SDS011;22783;51.034;3.726;2022-07-23T03:35:05;13.10;;;9.82;;
36849;SDS011;22783;51.034;3.726;2022-07-23T03:37:30;13.68;;;10.20;;
36849;SDS011;22783;51.034;3.726;2022-07-23T03:39:56;12.23;;;9.68;;
36849;SDS011;22783;51.034;3.726;2022-07-23T03:42:22;13.00;;;10.20;;
36849;SDS011;22783;51.034;3.726;2022-07-23T03:44:47;13.63;;;10.25;;
36849;SDS011;22783;51.034;3.726;2022-07-23T03:47:13;20.02;;;11.65;;
36849;SDS011;22783;51.034;3.726;2022-07-23T03:49:42;16.42;;;11.52;;
36849;SDS011;22783;51.034;3.726;2022-07-23T03:52:08;19.58;;;11.95;;
36849;SDS011;22783;51.034;3.726;2022-07-23T03:54:33;21.02;;;11.50;;
36849;SDS011;22783;51.034;3.726;2022-07-23T03:56:59;16.90;;;10.55;;
36849;SDS011;22783;51.034;3.726;2022-07-23T03:59:25;14.80;;;10.32;;
36849;SDS011;22783;51.034;3.726;2022-07-23T04:01:51;16.52;;;11.43;;
36849;SDS011;22783;51.034;3.726;2022-07-23T04:04:17;17.08;;;11.55;;
36849;SDS011;22783;51.034;3.726;2022-07-23T04:06:42;15.43;;;10.27;;
36849;SDS011;22783;51.034;3.726;2022-07-23T04:09:08;14.10;;;10.55;;
36849;SDS011;22783;51.034;3.726;2022-07-23T04:11:34;16.38;;;10.77;;
36849;SDS011;22783;51.034;3.726;2022-07-23T04:13:59;18.90;;;11.07;;
36849;SDS011;22783;51.034;3.726;2022-07-23T04:16:25;18.95;;;11.25;;
36849;SDS011;22783;51.034;3.726;2022-07-23T04:18:51;13.77;;;10.90;;
36849;SDS011;22783;51.034;3.726;2022-07-23T04:21:16;16.80;;;10.82;;
36849;SDS011;22783;51.034;3.726;2022-07-23T04:23:42;17.58;;;10.80;;
36849;SDS011;22783;51.034;3.726;2022-07-23T04:26:08;14.20;;;10.93;;
36849;SDS011;22783;51.034;3.726;2022-07-23T04:28:33;19.08;;;12.15;;
36849;SDS011;22783;51.034;3.726;2022-07-23T04:30:59;14.95;;;10.85;;
36849;SDS011;22783;51.034;3.726;2022-07-23T04:33:25;14.25;;;10.95;;
36849;SDS011;22783;51.034;3.726;2022-07-23T04:35:50;13.63;;;10.60;;
36849;SDS011;22783;51.034;3.726;2022-07-23T04:38:16;14.27;;;10.80;;
36849;SDS011;22783;51.034;3.726;2022-07-23T04:40:42;17.08;;;10.85;;
36849;SDS011;22783;51.034;3.726;2022-07-23T04:43:07;13.88;;;10.10;;
36849;SDS011;22783;51.034;3.726;2022-07-23T04:45:33;14.43;;;10.75;;
36849;SDS011;22783;51.034;3.726;2022-07-23T04:47:59;17.58;;;10.68;;
36849;SDS011;22783;51.034;3.726;2022-07-23T04:50:24;17.08;;;10.48;;
36849;SDS011;22783;51.034;3.726;2022-07-23T04:52:50;16.05;;;10.70;;
36849;SDS011;22783;51.034;3.726;2022-07-23T04:55:16;15.05;;;10.15;;
36849;SDS011;22783;51.034;3.726;2022-07-23T04:57:42;13.98;;;10.23;;
36849;SDS011;22783;51.034;3.726;2022-07-23T05:00:07;15.77;;;11.05;;
36849;SDS011;22783;51.034;3.726;2022-07-23T05:02:34;15.73;;;11.40;;
36849;SDS011;22783;51.034;3.726;2022-07-23T05:05:00;14.32;;;10.68;;
36849;SDS011;22783;51.034;3.726;2022-07-23T05:10:47;13.88;;;10.93;;
36849;SDS011;22783;51.034;3.726;2022-07-23T05:15:43;20.52;;;11.18;;
36849;SDS011;22783;51.034;3.726;2022-07-23T05:18:12;15.43;;;11.07;;
36849;SDS011;22783;51.034;3.726;2022-07-23T05:23:06;20.15;;;11.00;;
36849;SDS011;22783;51.034;3.726;2022-07-23T05:25:32;15.23;;;12.30;;
36849;SDS011;22783;51.034;3.726;2022-07-23T05:31:20;14.50;;;10.18;;
36849;SDS011;22783;51.034;3.726;2022-07-23T05:37:09;17.10;;;11.77;;
36849;SDS011;22783;51.034;3.726;2022-07-23T05:42:24;14.02;;;10.07;;
36849;SDS011;22783;51.034;3.726;2022-07-23T05:44:50;13.13;;;10.88;;
36849;SDS011;22783;51.034;3.726;2022-07-23T05:47:17;15.35;;;11.05;;
36849;SDS011;22783;51.034;3.726;2022-07-23T05:52:29;16.58;;;11.40;;
36849;SDS011;22783;51.034;3.726;2022-07-23T05:54:55;13.50;;;10.73;;
36849;SDS011;22783;51.034;3.726;2022-07-23T05:57:25;18.73;;;9.50;;
36849;SDS011;22783;51.034;3.726;2022-07-23T06:03:14;15.38;;;9.65;;
36849;SDS011;22783;51.034;3.726;2022-07-23T06:08:43;14.10;;;9.73;;
36849;SDS011;22783;51.034;3.726;2022-07-23T06:11:09;14.20;;;10.00;;
36849;SDS011;22783;51.034;3.726;2022-07-23T07:26:34;7.20;;;5.63;;
36849;SDS011;22783;51.034;3.726;2022-07-23T07:29:00;10.30;;;6.57;;
36849;SDS011;22783;51.034;3.726;2022-07-23T07:31:26;7.65;;;6.47;;
36849;SDS011;22783;51.034;3.726;2022-07-23T07:33:52;8.88;;;6.60;;
36849;SDS011;22783;51.034;3.726;2022-07-23T07:36:17;6.43;;;5.82;;
36849;SDS011;22783;51.034;3.726;2022-07-23T07:38:43;9.00;;;6.00;;
36849;SDS011;22783;51.034;3.726;2022-07-23T07:41:09;9.32;;;6.10;;
36849;SDS011;22783;51.034;3.726;2022-07-23T07:43:35;6.30;;;5.70;;
36849;SDS011;22783;51.034;3.726;2022-07-23T07:46:02;11.65;;;7.55;;
36849;SDS011;22783;51.034;3.726;2022-07-23T07:48:28;8.70;;;6.50;;
36849;SDS011;22783;51.034;3.726;2022-07-23T07:50:54;8.65;;;6.03;;
36849;SDS011;22783;51.034;3.726;2022-07-23T07:53:20;7.55;;;5.35;;
36849;SDS011;22783;51.034;3.726;2022-07-23T07:55:46;10.38;;;6.38;;
36849;SDS011;22783;51.034;3.726;2022-07-23T07:58:11;6.82;;;6.22;;
36849;SDS011;22783;51.034;3.726;2022-07-23T08:00:37;9.43;;;7.07;;
36849;SDS011;22783;51.034;3.726;2022-07-23T08:03:03;11.65;;;6.28;;
36849;SDS011;22783;51.034;3.726;2022-07-23T08:05:29;7.40;;;6.65;;
36849;SDS011;22783;51.034;3.726;2022-07-23T08:30:21;14.07;;;8.93;;
36849;SDS011;22783;51.034;3.726;2022-07-23T08:46:00;9.48;;;6.57;;
36849;SDS011;22783;51.034;3.726;2022-07-23T08:48:28;9.15;;;5.97;;
36849;SDS011;22783;51.034;3.726;2022-07-23T08:50:56;7.57;;;5.82;;
36849;SDS011;22783;51.034;3.726;2022-07-23T08:53:24;11.73;;;6.55;;
36849;SDS011;22783;51.034;3.726;2022-07-23T08:55:51;15.88;;;6.38;;
36849;SDS011;22783;51.034;3.726;2022-07-23T08:58:19;10.32;;;6.88;;
36849;SDS011;22783;51.034;3.726;2022-07-23T09:10:27;9.70;;;5.72;;
36849;SDS011;22783;51.034;3.726;2022-07-23T09:12:53;10.25;;;5.30;;
36849;SDS011;22783;51.034;3.726;2022-07-23T09:18:42;7.13;;;4.80;;
36849;SDS011;22783;51.034;3.726;2022-07-23T09:29:09;9.23;;;5.07;;
36849;SDS011;22783;51.034;3.726;2022-07-23T09:31:42;5.32;;;3.70;;
36849;SDS011;22783;51.034;3.726;2022-07-23T09:34:26;5.93;;;4.38;;
36849;SDS011;22783;51.034;3.726;2022-07-23T09:37:08;2.88;;;2.47;;
36849;SDS011;22783;51.034;3.726;2022-07-23T09:39:41;6.20;;;3.30;;
36849;SDS011;22783;51.034;3.726;2022-07-23T09:42:18;4.65;;;3.88;;
36849;SDS011;22783;51.034;3.726;2022-07-23T09:44:46;3.75;;;3.42;;
36849;SDS011;22783;51.034;3.726;2022-07-23T09:47:13;5.45;;;4.15;;
36849;SDS011;22783;51.034;3.726;2022-07-23T09:49:40;5.72;;;3.80;;
36849;SDS011;22783;51.034;3.726;2022-07-23T09:52:27;7.68;;;3.58;;
36849;SDS011;22783;51.034;3.726;2022-07-23T09:54:58;6.85;;;4.47;;
36849;SDS011;22783;51.034;3.726;2022-07-23T09:57:25;5.78;;;3.20;;
36849;SDS011;22783;51.034;3.726;2022-07-23T09:59:51;6.25;;;3.13;;
36849;SDS011;22783;51.034;3.726;2022-07-23T10:02:17;16.35;;;13.52;;
36849;SDS011;22783;51.034;3.726;2022-07-23T10:04:43;6.63;;;3.50;;
36849;SDS011;22783;51.034;3.726;2022-07-23T10:07:09;5.03;;;3.50;;
36849;SDS011;22783;51.034;3.726;2022-07-23T10:09:37;3.17;;;2.70;;
36849;SDS011;22783;51.034;3.726;2022-07-23T10:12:11;4.75;;;3.13;;
36849;SDS011;22783;51.034;3.726;2022-07-23T10:14:38;5.30;;;3.20;;
36849;SDS011;22783;51.034;3.726;2022-07-23T10:17:05;4.78;;;3.25;;
36849;SDS011;22783;51.034;3.726;2022-07-23T10:19:32;6.80;;;4.85;;
36849;SDS011;22783;51.034;3.726;2022-07-23T10:22:02;4.97;;;3.22;;
36849;SDS011;22783;51.034;3.726;2022-07-23T10:30:18;4.70;;;2.83;;
36849;SDS011;22783;51.034;3.726;2022-07-23T10:38:24;5.32;;;3.05;;
36849;SDS011;22783;51.034;3.726;2022-07-23T10:41:00;2.63;;;2.33;;
36849;SDS011;22783;51.034;3.726;2022-07-23T10:43:28;7.03;;;3.07;;
36849;SDS011;22783;51.034;3.726;2022-07-23T10:45:54;4.45;;;3.83;;
36849;SDS011;22783;51.034;3.726;2022-07-23T10:48:24;5.07;;;2.78;;
36849;SDS011;22783;51.034;3.726;2022-07-23T10:59:15;6.75;;;2.83;;
36849;SDS011;22783;51.034;3.726;2022-07-23T11:01:41;7.35;;;2.97;;
36849;SDS011;22783;51.034;3.726;2022-07-23T11:04:07;4.55;;;3.05;;
36849;SDS011;22783;51.034;3.726;2022-07-23T11:12:07;4.50;;;2.58;;
36849;SDS011;22783;51.034;3.726;2022-07-23T11:24:11;5.20;;;2.83;;
36849;SDS011;22783;51.034;3.726;2022-07-23T11:37:05;3.28;;;2.53;;
36849;SDS011;22783;51.034;3.726;2022-07-23T11:39:33;4.63;;;2.30;;
36849;SDS011;22783;51.034;3.726;2022-07-23T11:41:59;5.22;;;2.75;;
36849;SDS011;22783;51.034;3.726;2022-07-23T11:44:30;5.47;;;2.70;;
36849;SDS011;22783;51.034;3.726;2022-07-23T11:47:03;4.57;;;2.70;;
36849;SDS011;22783;51.034;3.726;2022-07-23T11:49:32;3.80;;;2.70;;
36849;SDS011;22783;51.034;3.726;2022-07-23T11:52:11;6.93;;;2.65;;
36849;SDS011;22783;51.034;3.726;2022-07-23T11:54:48;8.63;;;5.20;;
36849;SDS011;22783;51.034;3.726;2022-07-23T11:57:18;5.32;;;2.75;;
36849;SDS011;22783;51.034;3.726;2022-07-23T11:59:50;4.28;;;2.22;;
36849;SDS011;22783;51.034;3.726;2022-07-23T12:22:07;3.38;;;2.80;;
36849;SDS011;22783;51.034;3.726;2022-07-23T12:28:31;4.55;;;3.13;;
36849;SDS011;22783;51.034;3.726;2022-07-23T12:34:23;4.57;;;3.08;;
36849;SDS011;22783;51.034;3.726;2022-07-23T12:40:30;4.40;;;3.35;;
36849;SDS011;22783;51.034;3.726;2022-07-23T12:46:08;5.78;;;2.67;;
36849;SDS011;22783;51.034;3.726;2022-07-23T12:52:15;7.07;;;3.22;;
36849;SDS011;22783;51.034;3.726;2022-07-23T12:54:42;3.83;;;3.42;;
36849;SDS011;22783;51.034;3.726;2022-07-23T12:57:07;4.85;;;2.95;;
36849;SDS011;22783;51.034;3.726;2022-07-23T12:59:33;6.15;;;2.75;;
36849;SDS011;22783;51.034;3.726;2022-07-23T13:04:48;7.65;;;3.55;;
36849;SDS011;22783;51.034;3.726;2022-07-23T13:07:14;4.38;;;3.38;;
36849;SDS011;22783;51.034;3.726;2022-07-23T13:09:39;8.68;;;4.50;;
36849;SDS011;22783;51.034;3.726;2022-07-23T13:12:05;4.28;;;3.45;;
36849;SDS011;22783;51.034;3.726;2022-07-23T13:14:37;6.53;;;3.85;;
36849;SDS011;22783;51.034;3.726;2022-07-23T13:30:22;9.18;;;5.22;;
36849;SDS011;22783;51.034;3.726;2022-07-23T13:36:25;6.65;;;3.72;;
36849;SDS011;22783;51.034;3.726;2022-07-23T13:38:51;4.38;;;3.38;;
36849;SDS011;22783;51.034;3.726;2022-07-23T13:41:17;4.47;;;3.63;;
36849;SDS011;22783;51.034;3.726;2022-07-23T13:43:43;7.70;;;3.42;;
36849;SDS011;22783;51.034;3.726;2022-07-23T13:46:09;7.47;;;3.83;;
36849;SDS011;22783;51.034;3.726;2022-07-23T13:48:47;4.13;;;3.63;;
36849;SDS011;22783;51.034;3.726;2022-07-23T13:53:57;6.22;;;4.28;;
36849;SDS011;22783;51.034;3.726;2022-07-23T13:56:24;10.23;;;7.85;;
36849;SDS011;22783;51.034;3.726;2022-07-23T14:02:21;7.40;;;4.28;;
36849;SDS011;22783;51.034;3.726;2022-07-23T14:04:47;7.22;;;4.22;;
36849;SDS011;22783;51.034;3.726;2022-07-23T14:07:14;4.68;;;3.30;;
36849;SDS011;22783;51.034;3.726;2022-07-23T14:09:46;7.28;;;4.00;;
36849;SDS011;22783;51.034;3.726;2022-07-23T14:15:53;4.65;;;3.50;;
36849;SDS011;22783;51.034;3.726;2022-07-23T14:21:47;4.53;;;3.13;;
36849;SDS011;22783;51.034;3.726;2022-07-23T14:29:48;6.07;;;3.90;;
36849;SDS011;22783;51.034;3.726;2022-07-23T14:32:13;9.13;;;4.65;;
36849;SDS011;22783;51.034;3.726;2022-07-23T14:34:39;7.28;;;4.00;;
36849;SDS011;22783;51.034;3.726;2022-07-23T14:37:09;6.82;;;3.65;;
36849;SDS011;22783;51.034;3.726;2022-07-23T14:46:24;4.57;;;3.55;;
36849;SDS011;22783;51.034;3.726;2022-07-23T14:48:50;4.30;;;3.83;;
36849;SDS011;22783;51.034;3.726;2022-07-23T15:04:46;6.32;;;4.60;;
36849;SDS011;22783;51.034;3.726;2022-07-23T15:10:42;8.32;;;4.32;;
36849;SDS011;22783;51.034;3.726;2022-07-23T15:13:07;8.77;;;5.03;;
36849;SDS011;22783;51.034;3.726;2022-07-23T15:15:33;10.77;;;6.07;;
36849;SDS011;22783;51.034;3.726;2022-07-23T15:17:59;6.00;;;4.43;;
36849;SDS011;22783;51.034;3.726;2022-07-23T15:26:50;6.78;;;5.20;;
36849;SDS011;22783;51.034;3.726;2022-07-23T15:31:41;6.88;;;4.53;;
36849;SDS011;22783;51.034;3.726;2022-07-23T15:40:31;6.22;;;5.63;;
36849;SDS011;22783;51.034;3.726;2022-07-23T15:42:58;9.25;;;6.47;;
36849;SDS011;22783;51.034;3.726;2022-07-23T15:45:24;6.05;;;5.15;;
36849;SDS011;22783;51.034;3.726;2022-07-23T15:47:50;9.95;;;6.07;;
36849;SDS011;22783;51.034;3.726;2022-07-23T15:50:27;7.03;;;5.55;;
36849;SDS011;22783;51.034;3.726;2022-07-23T15:56:31;7.63;;;5.63;;
36849;SDS011;22783;51.034;3.726;2022-07-23T16:08:42;7.05;;;4.95;;
36849;SDS011;22783;51.034;3.726;2022-07-23T16:14:39;7.25;;;5.63;;
36849;SDS011;22783;51.034;3.726;2022-07-23T16:17:05;8.57;;;5.47;;
36849;SDS011;22783;51.034;3.726;2022-07-23T16:19:31;7.65;;;5.80;;
36849;SDS011;22783;51.034;3.726;2022-07-23T16:21:57;9.80;;;6.18;;
36849;SDS011;22783;51.034;3.726;2022-07-23T16:30:40;6.85;;;6.25;;
36849;SDS011;22783;51.034;3.726;2022-07-23T16:39:17;6.85;;;5.85;;
36849;SDS011;22783;51.034;3.726;2022-07-23T16:41:43;7.82;;;5.93;;
36849;SDS011;22783;51.034;3.726;2022-07-23T16:44:09;6.75;;;6.15;;
36849;SDS011;22783;51.034;3.726;2022-07-23T16:50:09;9.60;;;6.07;;
36849;SDS011;22783;51.034;3.726;2022-07-23T19:09:49;23.30;;;18.63;;
36849;SDS011;22783;51.034;3.726;2022-07-23T19:29:20;26.73;;;17.10;;
36849;SDS011;22783;51.034;3.726;2022-07-23T19:35:10;20.80;;;16.45;;
36849;SDS011;22783;51.034;3.726;2022-07-23T19:41:12;22.10;;;14.93;;
36849;SDS011;22783;51.034;3.726;2022-07-23T20:00:46;20.33;;;15.90;;
36849;SDS011;22783;51.034;3.726;2022-07-23T20:06:44;18.80;;;14.32;;
36849;SDS011;22783;51.034;3.726;2022-07-23T21:29:39;18.98;;;13.25;;
36849;SDS011;22783;51.034;3.726;2022-07-23T21:35:10;24.20;;;18.70;;
36849;SDS011;22783;51.034;3.726;2022-07-23T21:37:36;20.77;;;15.75;;
36849;SDS011;22783;51.034;3.726;2022-07-23T21:40:07;18.90;;;15.20;;
36849;SDS011;22783;51.034;3.726;2022-07-23T21:52:38;18.42;;;12.68;;
36849;SDS011;22783;51.034;3.726;2022-07-23T22:01:53;18.20;;;14.23;;
36849;SDS011;22783;51.034;3.726;2022-07-23T22:07:42;20.02;;;13.57;;
36849;SDS011;22783;51.034;3.726;2022-07-23T22:10:10;19.73;;;14.07;;
36849;SDS011;22783;51.034;3.726;2022-07-23T22:12:37;22.25;;;13.60;;
36849;SDS011;22783;51.034;3.726;2022-07-23T22:15:03;18.17;;;12.90;;
36849;SDS011;22783;51.034;3.726;2022-07-23T22:21:07;15.50;;;13.00;;
36849;SDS011;22783;51.034;3.726;2022-07-23T22:23:35;16.92;;;13.70;;
36849;SDS011;22783;51.034;3.726;2022-07-23T22:26:00;21.45;;;12.95;;
